Time;durP1;ratioP1;P1;durP2;ratioP2;P2;SDS_P1;SDS_P2;PMS_P1;PMS_P2;Temp;Humidity;BMP_temperature;BMP_pressure;BME280_temperature;BME280_humidity;BME280_pressure;Samples;Min_cycle;Max_cycle;Signal;HPM_P1;HPM_P2
2021/07/05 00:01:21;;;;;;;0.10;0.10;;;;;;;19.81;69.26;100946.78;5028103;28;20033;-90
2021/07/05 00:03:49;;;;;;;0.17;0.17;;;;;;;19.86;68.85;100955.50;5036996;28;20021;-88
2021/07/05 00:06:15;;;;;;;0.20;0.20;;;;;;;19.79;69.13;100953.19;5016695;28;20044;-89
2021/07/05 00:08:42;;;;;;;0.10;0.10;;;;;;;19.86;68.91;100946.53;5014445;28;20072;-89
2021/07/05 00:11:09;;;;;;;0.10;0.10;;;;;;;19.93;68.54;100942.56;5035590;28;20030;-88
2021/07/05 00:13:36;;;;;;;0.25;0.25;;;;;;;19.88;68.78;100941.94;5031557;28;20021;-90
2021/07/05 00:16:03;;;;;;;0.57;0.57;;;;;;;19.99;68.53;100947.56;5032462;28;20066;-90
2021/07/05 00:18:29;;;;;;;0.10;0.10;;;;;;;19.89;68.65;100938.31;5034641;28;20064;-89
2021/07/05 00:20:56;;;;;;;0.00;0.00;;;;;;;19.86;68.74;100935.78;5033041;28;20022;-90
2021/07/05 00:23:22;;;;;;;0.08;0.08;;;;;;;19.99;68.34;100928.75;5031114;28;20024;-88
2021/07/05 00:25:50;;;;;;;0.00;0.00;;;;;;;19.99;68.31;100931.44;5034699;28;20439;-83
2021/07/05 00:28:20;;;;;;;0.10;0.10;;;;;;;20.05;68.10;100924.84;5032616;28;20022;-82
2021/07/05 00:30:58;;;;;;;0.50;0.50;;;;;;;19.96;68.20;100923.56;5033663;28;20041;-92
2021/07/05 00:33:25;;;;;;;0.40;0.40;;;;;;;20.02;68.04;100920.47;5017182;28;20038;-86
2021/07/05 00:35:51;;;;;;;0.20;0.20;;;;;;;20.01;67.84;100924.16;5014398;28;20048;-87
2021/07/05 00:38:18;;;;;;;0.00;0.00;;;;;;;19.96;67.94;100925.38;5012059;28;20022;-87
2021/07/05 00:40:44;;;;;;;0.25;0.25;;;;;;;19.92;68.33;100919.31;5032593;28;20041;-86
2021/07/05 00:43:11;;;;;;;0.10;0.10;;;;;;;19.88;68.13;100918.59;5032468;28;20104;-86
2021/07/05 00:45:37;;;;;;;0.32;0.32;;;;;;;19.94;67.97;100922.78;5008535;28;20045;-86
2021/07/05 00:48:04;;;;;;;0.10;0.10;;;;;;;19.91;68.02;100917.56;5028048;28;20552;-86
2021/07/05 00:50:31;;;;;;;0.52;0.52;;;;;;;19.88;67.91;100912.38;5033846;28;20034;-86
2021/07/05 00:53:01;;;;;;;0.03;0.03;;;;;;;20.06;67.30;100915.78;5031897;28;20051;-86
2021/07/05 00:55:28;;;;;;;1.10;1.05;;;;;;;20.00;67.40;100911.66;5032372;28;20156;-88
2021/07/05 00:57:57;;;;;;;0.10;0.10;;;;;;;20.11;67.28;100907.47;5031806;28;20025;-87
2021/07/05 01:00:26;;;;;;;1.48;0.50;;;;;;;20.02;66.83;100900.81;5030478;28;20038;-85
2021/07/05 01:02:54;;;;;;;0.10;0.10;;;;;;;20.08;66.56;100902.28;5034651;28;20392;-86
2021/07/05 01:05:22;;;;;;;2.45;1.70;;;;;;;20.00;66.01;100894.63;5035213;28;20030;-87
2021/07/05 01:07:50;;;;;;;0.10;0.10;;;;;;;19.93;65.38;100893.28;5016421;28;20031;-86
2021/07/05 01:10:19;;;;;;;0.10;0.10;;;;;;;19.83;65.75;100898.34;5034405;28;20473;-86
2021/07/05 01:12:46;;;;;;;0.40;0.40;;;;;;;19.77;66.04;100898.66;5035120;28;20147;-87
2021/07/05 01:15:17;;;;;;;0.10;0.10;;;;;;;19.60;65.13;100905.00;5034427;28;20112;-85
2021/07/05 01:17:44;;;;;;;0.20;0.20;;;;;;;19.59;64.74;100901.44;5033217;28;20042;-86
2021/07/05 01:20:13;;;;;;;0.00;0.00;;;;;;;19.65;65.00;100909.16;5032935;28;20033;-86
2021/07/05 01:22:40;;;;;;;0.00;0.00;;;;;;;19.42;65.43;100904.22;5032243;28;20041;-86
2021/07/05 01:25:13;;;;;;;0.00;0.00;;;;;;;19.46;64.87;100905.78;5032341;28;20029;-86
2021/07/05 01:27:39;;;;;;;;;;;;;;;19.62;64.60;100898.56;5030934;28;20477;-87
2021/07/05 01:30:07;;;;;;;0.10;0.10;;;;;;;19.45;65.24;100910.31;5030310;28;19935;-87
2021/07/05 01:32:34;;;;;;;0.10;0.10;;;;;;;19.38;65.52;100899.00;5031954;28;20113;-87
2021/07/05 01:35:00;;;;;;;0.10;0.10;;;;;;;19.32;66.00;100899.34;5032513;28;20051;-87
2021/07/05 01:37:27;;;;;;;0.17;0.17;;;;;;;19.43;65.66;100906.81;5032910;28;20057;-87
2021/07/05 01:39:54;;;;;;;0.10;0.10;;;;;;;19.38;65.63;100906.22;5030210;28;20029;-87
2021/07/05 01:42:20;;;;;;;0.30;0.30;;;;;;;19.46;65.61;100905.78;5031595;28;20038;-87
2021/07/05 01:44:47;;;;;;;0.00;0.00;;;;;;;19.48;65.38;100909.25;5033579;28;20108;-86
2021/07/05 01:47:13;;;;;;;0.00;0.00;;;;;;;19.59;65.04;100905.94;5033106;28;20420;-88
2021/07/05 01:49:44;;;;;;;0.00;0.00;;;;;;;19.56;64.64;100897.13;5033136;28;20031;-88
2021/07/05 01:52:13;;;;;;;0.10;0.10;;;;;;;19.59;65.03;100900.56;5017785;28;20068;-85
2021/07/05 01:54:40;;;;;;;0.73;0.73;;;;;;;19.61;65.34;100894.16;5027283;28;20129;-86
2021/07/05 01:57:24;;;;;;;0.00;0.00;;;;;;;19.62;65.21;100895.03;5025188;28;20018;-87
2021/07/05 01:59:52;;;;;;;0.10;0.10;;;;;;;19.62;65.38;100900.41;5016726;28;20036;-86
2021/07/05 02:02:19;;;;;;;0.10;0.10;;;;;;;19.62;65.11;100903.94;5029826;28;20037;-86
2021/07/05 02:04:47;;;;;;;1.05;0.22;;;;;;;19.60;65.24;100900.50;5022620;28;20075;-87
2021/07/05 02:07:13;;;;;;;0.00;0.00;;;;;;;19.64;65.23;100901.16;5034164;28;20057;-86
2021/07/05 02:09:40;;;;;;;0.20;0.20;;;;;;;19.62;65.51;100897.72;5031449;28;20029;-86
2021/07/05 02:12:07;;;;;;;0.00;0.00;;;;;;;19.54;65.62;100887.41;5033006;28;20029;-87
2021/07/05 02:14:34;;;;;;;0.15;0.15;;;;;;;19.54;65.45;100890.09;5033572;28;20026;-88
2021/07/05 02:17:01;;;;;;;0.03;0.03;;;;;;;19.42;65.73;100893.47;5023902;28;20543;-88
2021/07/05 02:19:27;;;;;;;0.30;0.30;;;;;;;19.42;65.39;100893.47;5029502;28;20355;-87
2021/07/05 02:21:54;;;;;;;0.00;0.00;;;;;;;19.34;65.11;100889.41;5033701;28;20037;-88
2021/07/05 02:24:20;;;;;;;0.10;0.10;;;;;;;19.33;64.71;100898.41;5029486;28;20500;-87
2021/07/05 02:26:47;;;;;;;0.00;0.00;;;;;;;19.31;64.32;100896.75;5033455;28;20025;-86
2021/07/05 02:29:13;;;;;;;0.10;0.10;;;;;;;19.40;64.76;100907.88;5033418;28;20021;-87
2021/07/05 02:31:40;;;;;;;0.10;0.10;;;;;;;19.36;64.02;100900.06;5031105;28;20109;-87
2021/07/05 02:34:06;;;;;;;0.10;0.10;;;;;;;19.28;64.19;100897.81;5033118;28;20021;-85
2021/07/05 02:36:33;;;;;;;0.08;0.08;;;;;;;19.37;64.26;100897.28;5016034;28;20021;-87
2021/07/05 02:38:59;;;;;;;0.05;0.05;;;;;;;19.13;63.59;100898.63;5033557;28;20021;-87
2021/07/05 02:41:26;;;;;;;1.25;0.55;;;;;;;19.26;63.53;100905.06;5020187;28;20508;-87
2021/07/05 02:43:52;;;;;;;0.20;0.20;;;;;;;19.30;63.68;100901.28;5029812;28;20404;-87
2021/07/05 02:46:18;;;;;;;0.10;0.10;;;;;;;19.05;63.98;100899.06;5033164;28;20025;-87
2021/07/05 02:48:45;;;;;;;0.00;0.00;;;;;;;19.08;64.06;100893.53;5033272;28;20480;-86
2021/07/05 02:51:11;;;;;;;0.15;0.15;;;;;;;19.26;64.14;100883.56;5033195;28;20033;-86
2021/07/05 02:53:38;;;;;;;1.00;1.00;;;;;;;19.16;64.01;100891.28;5020159;28;20030;-86
2021/07/05 02:56:05;;;;;;;1.13;0.98;;;;;;;19.23;64.05;100887.31;5012972;28;20397;-87
2021/07/05 02:58:33;;;;;;;0.10;0.10;;;;;;;19.15;64.23;100880.63;5022387;28;20072;-87
2021/07/05 03:01:01;;;;;;;0.05;0.05;;;;;;;19.09;64.46;100876.47;5023470;28;20042;-85
2021/07/05 03:03:27;;;;;;;0.00;0.00;;;;;;;19.12;64.50;100880.81;5027078;28;20120;-86
2021/07/05 03:05:58;;;;;;;0.32;0.32;;;;;;;19.11;64.58;100879.06;5016318;28;20508;-86
2021/07/05 03:08:24;;;;;;;0.00;0.00;;;;;;;19.07;65.17;100876.53;5032493;28;20034;-86
2021/07/05 03:10:50;;;;;;;0.00;0.00;;;;;;;19.06;65.23;100877.50;5032404;28;20487;-86
2021/07/05 03:13:19;;;;;;;0.00;0.00;;;;;;;18.90;65.81;100880.19;5013599;28;20037;-86
2021/07/05 03:15:46;;;;;;;0.00;0.00;;;;;;;18.93;65.77;100876.47;5015335;28;20535;-86
2021/07/05 03:18:13;;;;;;;0.10;0.10;;;;;;;18.80;65.85;100880.72;5017495;28;20116;-86
2021/07/05 03:20:44;;;;;;;0.08;0.08;;;;;;;18.86;65.99;100886.59;5033435;28;20048;-86
2021/07/05 03:23:13;;;;;;;0.10;0.10;;;;;;;18.80;65.95;100891.44;5026771;28;20029;-85
2021/07/05 03:25:40;;;;;;;0.10;0.10;;;;;;;18.83;65.89;100893.97;5037414;28;20084;-86
2021/07/05 03:28:09;;;;;;;1.65;1.55;;;;;;;18.76;65.93;100886.22;5037025;28;20030;-86
2021/07/05 03:30:38;;;;;;;0.00;0.00;;;;;;;18.64;66.17;100886.03;5036597;28;20025;-86
2021/07/05 03:33:06;;;;;;;0.00;0.00;;;;;;;18.79;65.75;100884.34;5036967;28;20120;-86
2021/07/05 03:35:33;;;;;;;0.10;0.10;;;;;;;18.80;65.39;100892.31;5036635;28;20030;-86
2021/07/05 03:38:00;;;;;;;0.10;0.10;;;;;;;18.75;65.49;100883.63;5035039;28;20507;-86
2021/07/05 03:40:29;;;;;;;0.10;0.10;;;;;;;18.76;65.04;100880.88;5027805;28;20543;-87
2021/07/05 03:42:57;;;;;;;0.57;0.57;;;;;;;18.80;65.11;100881.56;5036436;28;20034;-86
2021/07/05 03:45:26;;;;;;;0.00;0.00;;;;;;;18.72;65.11;100879.31;5036514;28;20075;-86
2021/07/05 03:47:53;;;;;;;0.10;0.10;;;;;;;18.68;65.25;100883.13;5036476;28;20028;-86
2021/07/05 03:50:20;;;;;;;0.00;0.00;;;;;;;18.59;65.00;100878.22;5035124;28;20037;-88
2021/07/05 03:52:48;;;;;;;0.00;0.00;;;;;;;18.48;65.12;100873.44;5033749;28;20029;-87
2021/07/05 03:55:18;;;;;;;0.00;0.00;;;;;;;18.63;64.98;100866.41;5036134;28;20060;-87
2021/07/05 03:57:45;;;;;;;0.20;0.20;;;;;;;18.63;64.71;100874.44;5036378;28;20029;-87
2021/07/05 04:00:15;;;;;;;0.20;0.20;;;;;;;18.61;64.83;100868.28;5018067;28;20113;-87
2021/07/05 04:02:42;;;;;;;0.10;0.10;;;;;;;18.49;64.68;100868.94;5033494;28;20042;-88
2021/07/05 04:05:09;;;;;;;0.00;0.00;;;;;;;18.38;64.91;100870.38;5036003;28;20030;-87
2021/07/05 04:07:35;;;;;;;0.08;0.08;;;;;;;18.49;64.87;100868.94;5035427;28;20112;-87
2021/07/05 04:10:03;;;;;;;0.10;0.10;;;;;;;18.56;64.83;100873.03;5034003;28;20117;-86
2021/07/05 04:12:30;;;;;;;0.13;0.10;;;;;;;18.49;64.46;100866.25;5034817;28;20029;-86
2021/07/05 04:14:56;;;;;;;0.22;0.22;;;;;;;18.48;64.67;100875.25;5035631;28;20021;-87
2021/07/05 04:17:22;;;;;;;0.08;0.08;;;;;;;18.48;64.88;100891.34;5035810;28;20034;-86
2021/07/05 04:19:48;;;;;;;0.00;0.00;;;;;;;18.48;65.02;100885.97;5029901;28;20033;-87
2021/07/05 04:22:16;;;;;;;0.00;0.00;;;;;;;18.54;65.13;100885.66;5031479;28;20033;-87
2021/07/05 04:24:45;;;;;;;0.08;0.08;;;;;;;18.51;65.17;100892.03;5035903;28;20057;-87
2021/07/05 04:27:12;;;;;;;0.65;0.30;;;;;;;18.52;65.14;100887.56;5035614;28;20064;-87
2021/07/05 04:29:39;;;;;;;2.38;1.17;;;;;;;18.50;65.15;100868.00;5035553;28;20075;-87
2021/07/05 04:32:06;;;;;;;0.10;0.10;;;;;;;18.53;65.16;100874.06;5019092;28;20389;-86
2021/07/05 04:34:33;;;;;;;0.00;0.00;;;;;;;18.61;65.08;100867.44;5029357;28;20029;-87
2021/07/05 04:36:59;;;;;;;0.40;0.40;;;;;;;18.52;64.90;100868.78;5034076;28;20362;-87
2021/07/05 04:39:26;;;;;;;0.00;0.00;;;;;;;18.41;64.32;100856.78;5035734;28;20029;-86
2021/07/05 04:41:53;;;;;;;0.10;0.10;;;;;;;18.52;64.27;100872.31;5035538;28;20029;-87
2021/07/05 04:44:19;;;;;;;0.00;0.00;;;;;;;18.67;64.32;100862.59;5035439;28;20036;-88
2021/07/05 04:46:48;;;;;;;0.00;0.00;;;;;;;18.61;64.21;100860.22;5034580;28;20523;-88
2021/07/05 04:49:18;;;;;;;1.67;1.58;;;;;;;18.71;64.06;100860.59;5027460;28;20033;-87
2021/07/05 04:51:44;;;;;;;0.00;0.00;;;;;;;18.72;64.72;100871.25;5020727;28;20022;-87
2021/07/05 04:54:11;;;;;;;0.38;0.38;;;;;;;18.73;64.27;100870.31;5032313;28;20465;-87
2021/07/05 04:56:38;;;;;;;0.10;0.10;;;;;;;18.74;64.49;100877.41;5022421;28;20026;-86
2021/07/05 04:59:06;;;;;;;0.10;0.10;;;;;;;18.80;64.66;100875.34;5024929;28;20084;-88
2021/07/05 05:01:33;;;;;;;0.47;0.47;;;;;;;18.79;64.96;100873.59;5017628;28;20484;-88
2021/07/05 05:04:00;;;;;;;0.75;0.75;;;;;;;18.81;64.92;100861.84;5031629;28;20099;-87
2021/07/05 05:06:26;;;;;;;0.05;0.05;;;;;;;18.80;64.84;100869.97;5015539;28;20037;-87
2021/07/05 05:08:53;;;;;;;0.00;0.00;;;;;;;18.83;64.78;100867.09;5015422;28;20088;-86
2021/07/05 05:11:20;;;;;;;0.85;0.85;;;;;;;18.84;64.74;100871.53;5015290;28;20034;-86
2021/07/05 05:13:47;;;;;;;0.10;0.10;;;;;;;18.79;64.88;100870.94;5029443;28;20116;-86
2021/07/05 05:16:14;;;;;;;0.10;0.10;;;;;;;18.77;64.85;100871.00;5034542;28;20030;-87
2021/07/05 05:18:40;;;;;;;0.40;0.40;;;;;;;18.75;64.85;100873.78;5035547;28;20077;-86
2021/07/05 05:21:07;;;;;;;0.10;0.10;;;;;;;18.69;64.78;100879.47;5034423;28;20128;-86
2021/07/05 05:23:33;;;;;;;0.10;0.10;;;;;;;18.76;64.21;100886.22;5034082;28;20524;-85
2021/07/05 05:25:59;;;;;;;0.10;0.10;;;;;;;18.84;64.28;100877.78;5033980;28;20392;-85
2021/07/05 05:28:31;;;;;;;0.00;0.00;;;;;;;18.74;64.18;100881.91;5033962;28;20025;-84
2021/07/05 05:30:58;;;;;;;0.10;0.10;;;;;;;18.74;64.71;100877.41;5033210;28;20030;-86
2021/07/05 05:33:24;;;;;;;0.10;0.10;;;;;;;18.82;64.91;100885.03;5033622;28;20030;-86
2021/07/05 05:35:50;;;;;;;0.00;0.00;;;;;;;18.85;65.02;100874.13;5033588;28;20029;-86
2021/07/05 05:38:17;;;;;;;0.10;0.10;;;;;;;18.89;64.69;100874.84;5033800;28;20435;-87
2021/07/05 05:40:43;;;;;;;0.00;0.00;;;;;;;18.94;64.56;100872.81;5033793;28;20064;-87
2021/07/05 05:43:09;;;;;;;0.10;0.10;;;;;;;18.88;64.52;100882.03;5033639;28;20060;-89
2021/07/05 05:45:39;;;;;;;0.20;0.20;;;;;;;18.99;64.39;100878.81;5024276;28;20104;-85
2021/07/05 05:48:06;;;;;;;0.10;0.10;;;;;;;18.95;64.18;100881.72;5031263;28;20053;-84
2021/07/05 05:50:33;;;;;;;0.52;0.52;;;;;;;19.07;63.93;100868.50;5031861;28;20472;-86
2021/07/05 05:52:59;;;;;;;0.03;0.03;;;;;;;19.02;63.68;100870.56;5034231;28;20047;-87
2021/07/05 05:55:25;;;;;;;0.10;0.10;;;;;;;18.91;64.13;100871.16;5033461;28;20052;-89
2021/07/05 05:57:51;;;;;;;0.08;0.08;;;;;;;19.02;63.44;100872.41;5033171;28;20488;-85
2021/07/05 06:00:22;;;;;;;0.10;0.10;;;;;;;18.95;63.87;100871.00;5033998;28;20087;-86
2021/07/05 06:02:49;;;;;;;0.10;0.10;;;;;;;18.93;63.35;100873.78;5033144;28;20124;-82
2021/07/05 06:05:16;;;;;;;0.70;0.60;;;;;;;18.51;63.45;100869.72;5032885;28;20025;-84
2021/07/05 06:07:47;;;;;;;0.35;0.35;;;;;;;18.64;63.39;100873.50;5033800;28;20037;-86
2021/07/05 06:10:17;;;;;;;0.83;0.83;;;;;;;18.68;63.62;100875.06;5029193;28;20106;-82
2021/07/05 06:12:44;;;;;;;0.00;0.00;;;;;;;18.88;63.28;100876.66;5033126;28;20021;-83
2021/07/05 06:15:10;;;;;;;0.85;0.85;;;;;;;18.71;63.11;100877.56;5033393;28;20022;-83
2021/07/05 06:17:37;;;;;;;0.85;0.85;;;;;;;18.58;63.18;100876.50;5033386;28;20033;-83
2021/07/05 06:20:06;;;;;;;0.08;0.08;;;;;;;18.70;63.44;100886.56;5033495;28;20381;-83
2021/07/05 06:22:40;;;;;;;0.10;0.10;;;;;;;18.50;63.14;100876.88;5033328;28;20473;-84
2021/07/05 06:25:07;;;;;;;0.10;0.10;;;;;;;18.62;63.37;100883.44;5033596;28;20034;-85
2021/07/05 06:27:33;;;;;;;0.10;0.10;;;;;;;18.65;62.90;100877.88;5014041;28;20029;-85
2021/07/05 06:29:59;;;;;;;0.60;0.60;;;;;;;18.84;63.14;100880.47;5033144;28;20017;-85
2021/07/05 06:32:25;;;;;;;0.70;0.70;;;;;;;18.94;62.58;100886.25;5032641;28;20075;-84
2021/07/05 06:34:52;;;;;;;0.10;0.10;;;;;;;19.02;62.88;100892.03;5031969;28;20029;-86
2021/07/05 06:37:18;;;;;;;0.47;0.47;;;;;;;18.95;62.39;100887.94;5033133;28;20461;-85
2021/07/05 06:39:44;;;;;;;0.75;0.75;;;;;;;19.10;61.97;100888.06;5032668;28;20524;-85
2021/07/05 06:42:11;;;;;;;0.10;0.10;;;;;;;18.89;62.32;100897.19;5031138;28;20048;-84
2021/07/05 06:44:38;;;;;;;0.10;0.10;;;;;;;18.92;61.83;100896.19;5031572;28;20029;-83
2021/07/05 06:47:05;;;;;;;0.47;0.47;;;;;;;18.87;62.29;100893.72;5032348;28;20412;-83
2021/07/05 06:49:32;;;;;;;0.10;0.10;;;;;;;19.11;61.65;100896.03;5032740;28;20155;-84
2021/07/05 06:51:59;;;;;;;0.03;0.03;;;;;;;19.25;61.74;100897.97;5030551;28;20021;-84
2021/07/05 06:54:25;;;;;;;0.17;0.17;;;;;;;19.20;61.94;100908.97;5033421;28;20057;-86
2021/07/05 06:56:51;;;;;;;0.00;0.00;;;;;;;19.21;62.34;100907.16;5031660;28;20037;-85
2021/07/05 06:59:17;;;;;;;0.10;0.10;;;;;;;19.26;61.89;100909.59;5033317;28;20432;-85
2021/07/05 07:01:45;;;;;;;0.03;0.03;;;;;;;19.29;61.81;100910.28;5015040;28;20092;-86
2021/07/05 07:04:11;;;;;;;0.10;0.10;;;;;;;19.04;62.45;100914.31;5033413;28;20041;-86
2021/07/05 07:06:37;;;;;;;0.65;0.65;;;;;;;19.25;61.84;100911.38;5033044;28;20037;-83
2021/07/05 07:09:05;;;;;;;0.10;0.10;;;;;;;19.41;61.80;100911.41;5033359;28;20041;-85
2021/07/05 07:11:31;;;;;;;0.20;0.20;;;;;;;19.34;61.91;100904.63;5025330;28;20036;-84
2021/07/05 07:13:58;;;;;;;0.15;0.15;;;;;;;19.34;61.75;100902.84;5011515;28;20029;-85
2021/07/05 07:16:27;;;;;;;0.10;0.10;;;;;;;19.40;62.01;100907.88;5011906;28;20034;-85
2021/07/05 07:19:00;;;;;;;0.63;0.63;;;;;;;19.40;61.38;100918.63;5023926;28;20386;-84
2021/07/05 07:21:26;;;;;;;;;;;;;;;19.69;60.45;100915.22;5030747;28;20132;-85
2021/07/05 07:23:54;;;;;;;0.10;0.10;;;;;;;19.91;60.65;100914.03;5028340;28;19944;-86
2021/07/05 07:26:22;;;;;;;0.20;0.20;;;;;;;20.20;60.24;100917.69;5026409;28;20503;-86
2021/07/05 07:28:52;;;;;;;0.10;0.10;;;;;;;20.24;59.66;100918.34;5031353;28;20033;-84
2021/07/05 07:31:20;;;;;;;0.13;0.13;;;;;;;20.28;59.45;100910.00;5030907;28;20408;-85
2021/07/05 07:33:46;;;;;;;0.10;0.10;;;;;;;20.34;59.27;100908.78;5027950;28;20107;-85
2021/07/05 07:36:13;;;;;;;0.13;0.13;;;;;;;20.61;57.84;100900.88;5012739;28;20132;-85
2021/07/05 07:38:45;;;;;;;2.45;1.25;;;;;;;20.56;57.37;100904.78;5029508;28;20037;-85
2021/07/05 07:41:11;;;;;;;0.32;0.30;;;;;;;20.73;57.82;100904.66;5029997;28;20033;-85
2021/07/05 07:43:38;;;;;;;0.17;0.17;;;;;;;20.81;58.03;100904.16;5030820;28;20029;-84
2021/07/05 07:46:04;;;;;;;0.00;0.00;;;;;;;20.89;57.61;100907.25;5030475;28;20029;-84
2021/07/05 07:48:30;;;;;;;1.30;1.15;;;;;;;20.99;57.37;100921.00;5030880;28;20025;-85
2021/07/05 07:50:56;;;;;;;0.20;0.20;;;;;;;20.98;56.49;100912.06;5031094;28;20477;-85
2021/07/05 07:53:23;;;;;;;0.10;0.10;;;;;;;21.31;56.42;100913.59;5030655;28;20033;-85
2021/07/05 07:55:49;;;;;;;0.32;0.32;;;;;;;21.18;55.98;100918.00;5031075;28;20026;-84
2021/07/05 07:58:15;;;;;;;0.13;0.13;;;;;;;21.38;55.48;100918.56;5030640;28;20035;-85
2021/07/05 08:00:41;;;;;;;2.15;0.82;;;;;;;21.42;55.38;100923.69;5030070;28;20045;-83
2021/07/05 08:03:09;;;;;;;0.32;0.32;;;;;;;21.62;55.63;100914.31;5030051;28;20052;-84
2021/07/05 08:05:35;;;;;;;0.15;0.15;;;;;;;21.43;55.55;100919.13;5030063;28;20025;-86
2021/07/05 08:08:02;;;;;;;0.10;0.10;;;;;;;21.52;54.39;100914.97;5028733;28;20491;-85
2021/07/05 08:10:30;;;;;;;0.73;0.73;;;;;;;21.77;54.32;100916.97;5033864;28;20017;-85
2021/07/05 08:12:58;;;;;;;0.47;0.47;;;;;;;21.76;53.55;100915.25;5034136;28;20039;-85
2021/07/05 08:15:24;;;;;;;0.30;0.30;;;;;;;21.88;53.02;100914.44;5033371;28;20172;-84
2021/07/05 08:17:51;;;;;;;0.82;0.73;;;;;;;22.02;52.91;100920.72;5034489;28;20033;-83
2021/07/05 08:20:21;;;;;;;0.10;0.10;;;;;;;22.22;53.10;100917.56;5034230;28;20397;-84
2021/07/05 08:22:49;;;;;;;0.20;0.20;;;;;;;22.13;52.40;100913.66;5034580;28;20084;-84
2021/07/05 08:25:15;;;;;;;0.47;0.47;;;;;;;22.28;51.86;100908.16;5034677;28;20029;-84
2021/07/05 08:27:42;;;;;;;0.10;0.10;;;;;;;22.57;50.79;100908.88;5034524;28;20025;-84
2021/07/05 08:30:08;;;;;;;0.28;0.28;;;;;;;22.20;51.88;100913.22;5016508;28;20057;-84
2021/07/05 08:32:35;;;;;;;0.40;0.40;;;;;;;21.95;51.92;100914.88;5034679;28;20079;-84
2021/07/05 08:35:04;;;;;;;0.10;0.10;;;;;;;22.25;51.92;100906.53;5034247;28;20057;-84
2021/07/05 08:37:30;;;;;;;0.30;0.30;;;;;;;22.29;51.73;100907.19;5034136;28;20116;-84
2021/07/05 08:39:56;;;;;;;0.60;0.40;;;;;;;22.49;52.37;100908.53;5034003;28;20037;-84
2021/07/05 08:42:24;;;;;;;0.52;0.52;;;;;;;22.24;51.75;100903.94;5033883;28;20029;-84
2021/07/05 08:44:51;;;;;;;0.30;0.30;;;;;;;22.36;51.56;100907.66;5031708;28;20038;-84
2021/07/05 08:47:19;;;;;;;1.75;1.50;;;;;;;22.20;51.85;100900.59;5033751;28;20020;-84
2021/07/05 08:49:46;;;;;;;0.10;0.10;;;;;;;22.44;51.98;100902.59;5033976;28;20021;-84
2021/07/05 08:52:13;;;;;;;0.50;0.50;;;;;;;22.39;51.55;100902.94;5034019;28;20477;-84
2021/07/05 08:54:39;;;;;;;0.13;0.13;;;;;;;22.58;52.34;100901.63;5034219;28;20021;-84
2021/07/05 08:57:05;;;;;;;0.10;0.10;;;;;;;22.18;50.92;100912.47;5026530;28;20065;-84
2021/07/05 08:59:35;;;;;;;0.10;0.10;;;;;;;22.50;50.61;100914.81;5029656;28;20025;-84
2021/07/05 09:02:02;;;;;;;0.20;0.20;;;;;;;22.51;51.49;100905.75;5033203;28;20504;-83
2021/07/05 09:04:30;;;;;;;0.40;0.40;;;;;;;22.80;51.49;100895.59;5032219;28;20038;-84
2021/07/05 09:07:12;;;;;;;0.20;0.20;;;;;;;22.68;50.83;100897.34;5032925;28;20017;-83
2021/07/05 09:09:38;;;;;;;0.10;0.10;;;;;;;22.88;51.35;100886.94;5031998;28;20021;-84
2021/07/05 09:12:06;;;;;;;0.10;0.10;;;;;;;22.67;50.55;100892.03;5033290;28;20065;-82
2021/07/05 09:14:34;;;;;;;0.13;0.13;;;;;;;22.84;49.76;100896.25;5025230;28;20103;-83
2021/07/05 09:17:09;;;;;;;0.40;0.40;;;;;;;22.87;49.29;100899.59;5021874;28;20052;-83
2021/07/05 09:19:37;;;;;;;0.30;0.30;;;;;;;23.01;48.17;100892.34;5005099;28;20068;-83
2021/07/05 09:22:06;;;;;;;0.10;0.10;;;;;;;23.17;48.55;100892.16;5033178;28;20037;-84
2021/07/05 09:27:25;;;;;;;0.05;0.05;;;;;;;23.32;48.77;100892.88;5066732;28;20429;-85
2021/07/05 09:29:52;;;;;;;0.10;0.10;;;;;;;23.47;49.54;100899.84;5054215;28;20025;-83
2021/07/05 09:32:29;;;;;;;0.40;0.40;;;;;;;23.67;48.69;100898.34;5058349;28;20392;-85
2021/07/05 09:34:56;;;;;;;0.15;0.15;;;;;;;23.74;49.49;100890.66;5059725;28;20048;-82
2021/07/05 09:42:50;;;;;;;0.30;0.30;;;;;;;23.75;48.15;100892.34;5080480;27;20394;-83
2021/07/05 09:45:31;;;;;;;0.30;0.30;;;;;;;23.94;47.47;100897.31;5066220;28;20353;-83
2021/07/05 09:48:16;;;;;;;0.30;0.30;;;;;;;24.18;47.50;100902.66;5058074;28;20369;-83
2021/07/05 09:50:44;;;;;;;0.10;0.10;;;;;;;24.05;46.35;100900.03;5058667;28;20384;-83
2021/07/05 09:53:40;;;;;;;0.10;0.10;;;;;;;23.94;46.16;100891.00;5057313;28;20055;-83
2021/07/05 09:56:24;;;;;;;0.30;0.30;;;;;;;24.32;47.76;100896.19;5064929;28;20099;-83
2021/07/05 09:58:54;;;;;;;0.75;0.75;;;;;;;24.39;47.97;100891.19;5069284;28;20024;-83
2021/07/05 10:01:42;;;;;;;0.10;0.10;;;;;;;24.65;46.45;100872.03;5068465;28;20055;-83
2021/07/05 10:04:11;;;;;;;0.22;0.22;;;;;;;24.44;46.01;100885.41;5061267;28;20563;-82
2021/07/05 10:15:02;;;;;;;0.10;0.10;;;;;;;23.94;46.34;100899.13;5046656;27;1270892;-82
2021/07/05 10:17:30;;;;;;;0.20;0.20;;;;;;;23.45;46.82;100890.09;5071340;28;20026;-84
2021/07/05 10:19:57;;;;;;;0.10;0.10;;;;;;;23.52;48.51;100884.13;5062820;28;20494;-89
2021/07/05 10:22:25;;;;;;;0.47;0.47;;;;;;;23.62;47.42;100888.88;5046006;28;20506;-85
2021/07/05 10:24:52;;;;;;;4.07;0.55;;;;;;;23.50;48.15;100887.94;5069128;28;20036;-83
2021/07/05 10:27:20;;;;;;;2.70;0.47;;;;;;;23.47;48.19;100889.03;5075809;28;20024;-83
2021/07/05 10:29:49;;;;;;;0.20;0.20;;;;;;;23.31;48.11;100886.56;5073044;28;20033;-82
2021/07/05 10:32:18;;;;;;;4.13;1.27;;;;;;;23.20;49.30;100892.78;5047796;28;20037;-82
2021/07/05 10:34:49;;;;;;;0.10;0.10;;;;;;;22.90;49.55;100890.41;5060904;28;20035;-82
2021/07/05 10:37:37;;;;;;;0.20;0.20;;;;;;;22.76;50.08;100894.09;5073193;28;20105;-82
2021/07/05 10:40:06;;;;;;;0.90;0.90;;;;;;;22.58;50.40;100897.13;5065995;28;20029;-83
2021/07/05 10:42:39;;;;;;;0.30;0.30;;;;;;;22.62;50.67;100893.22;5068293;28;20032;-82
2021/07/05 10:45:09;;;;;;;0.47;0.47;;;;;;;22.33;51.63;100897.06;5072169;28;20102;-83
2021/07/05 10:47:43;;;;;;;0.55;0.55;;;;;;;22.27;51.94;100904.59;5076335;28;20601;-82
2021/07/05 10:50:49;;;;;;;0.40;0.40;;;;;;;22.38;51.20;100903.03;5076872;28;20028;-82
2021/07/05 10:56:01;;;;;;;0.10;0.10;;;;;;;22.46;51.96;100908.78;5081813;22;20432;-91
2021/07/05 10:58:32;;;;;;;0.35;0.32;;;;;;;22.57;50.95;100900.78;5082293;28;20040;-90
2021/07/05 11:01:01;;;;;;;0.10;0.10;;;;;;;22.69;50.98;100900.91;5048500;28;20055;-90
2021/07/05 11:09:15;;;;;;;0.10;0.10;;;;;;;23.02;49.97;100907.59;5072089;27;20428;-92
2021/07/05 11:11:47;;;;;;;0.20;0.20;;;;;;;23.02;50.26;100904.88;5063248;28;20056;-95
2021/07/05 11:14:21;;;;;;;0.50;0.50;;;;;;;22.75;51.86;100911.25;5051254;28;20037;-83
2021/07/05 11:17:37;;;;;;;0.03;0.03;;;;;;;22.91;52.69;100914.59;5068290;28;20059;-96
2021/07/05 11:20:19;;;;;;;0.10;0.10;;;;;;;23.09;52.55;100917.84;5067288;28;20161;-93
2021/07/05 11:22:53;;;;;;;1.42;1.33;;;;;;;23.35;51.92;100922.38;5069154;28;20387;-92
2021/07/05 11:25:20;;;;;;;0.10;0.10;;;;;;;23.23;51.93;100914.16;5067382;28;20029;-89
2021/07/05 11:27:52;;;;;;;0.13;0.13;;;;;;;23.18;51.69;100915.47;5066624;28;20048;-94
2021/07/05 11:35:58;;;;;;;0.40;0.40;;;;;;;23.43;52.20;100930.78;5079616;27;20444;-91
2021/07/05 11:41:21;;;;;;;0.13;0.13;;;;;;;23.11;52.05;100928.53;4869122;27;5586109;-88
2021/07/05 11:44:07;;;;;;;0.43;0.43;;;;;;;22.95;52.93;100928.75;5081596;28;20124;-92
2021/07/05 11:49:22;;;;;;;0.30;0.30;;;;;;;22.77;53.50;100936.34;5073103;27;20879;-88
2021/07/05 11:51:54;;;;;;;0.10;0.10;;;;;;;22.53;53.83;100931.69;5060465;28;20110;-86
2021/07/05 11:54:26;;;;;;;0.03;0.03;;;;;;;22.36;54.69;100929.25;5062775;28;20041;-89
2021/07/05 11:56:55;;;;;;;0.40;0.40;;;;;;;22.16;55.09;100928.75;5039203;28;20033;-90
2021/07/05 11:59:25;;;;;;;0.10;0.10;;;;;;;22.32;54.78;100925.00;5044590;28;20087;-89
2021/07/05 12:01:58;;;;;;;0.13;0.13;;;;;;;22.44;54.49;100924.19;5037006;28;20040;-88
2021/07/05 12:04:29;;;;;;;0.82;0.73;;;;;;;22.36;53.65;100926.53;5045599;28;20037;-86
2021/07/05 12:06:55;;;;;;;0.20;0.20;;;;;;;22.44;54.20;100935.00;5031259;28;20043;-90
2021/07/05 12:09:27;;;;;;;0.30;0.30;;;;;;;22.35;54.49;100933.75;5043582;28;20034;-89